Time;durP1;ratioP1;P1;durP2;ratioP2;P2;SDS_P1;SDS_P2;PMS_P1;PMS_P2;Temp;Humidity;BMP_temperature;BMP_pressure;BME280_temperature;BME280_humidity;BME280_pressure;Samples;Min_cycle;Max_cycle;Signal;HPM_P1;HPM_P2
2023/12/04 00:00:15;;;;;;;;;;;;;;;7.83;100.00;99622.66;5087210;28;19924;-88
2023/12/04 00:02:40;;;;;;;;;;;;;;;7.85;100.00;99612.06;5087302;28;19916;-86
2023/12/04 00:05:05;;;;;;;;;;;;;;;7.84;100.00;99600.66;5088287;28;19916;-91
2023/12/04 00:07:31;;;;;;;;;;;;;;;7.87;100.00;99594.41;5087002;28;20286;-84
2023/12/04 00:09:56;;;;;;;;;;;;;;;7.87;100.00;99586.50;5088282;28;19924;-85
2023/12/04 00:12:21;;;;;;;;;;;;;;;7.88;100.00;99597.00;5088336;28;20382;-86
2023/12/04 00:14:46;;;;;;;;;;;;;;;7.89;100.00;99587.31;5087110;28;19973;-84
2023/12/04 00:17:12;;;;;;;;;;;;;;;7.89;100.00;99584.66;5087952;28;19916;-86
2023/12/04 00:19:37;;;;;;;;;;;;;;;7.90;100.00;99581.13;5088052;28;20020;-84
2023/12/04 00:22:02;;;;;;;;;;;;;;;7.90;100.00;99574.06;5088090;28;19927;-87
2023/12/04 00:24:28;;;;;;;;;;;;;;;7.62;100.00;99575.00;5086608;28;20011;-83
2023/12/04 00:26:53;;;;;;;;;;;;;;;6.27;100.00;99585.38;5077416;28;19921;-83
2023/12/04 00:29:18;;;;;;;;;;;;;;;5.72;100.00;99587.69;5086692;28;20378;-84
2023/12/04 00:31:43;;;;;;;;;;;;;;;5.53;100.00;99576.78;5103703;28;19916;-83
2023/12/04 00:34:08;;;;;;;;;;;;;;;5.28;100.00;99572.16;5087774;28;19931;-84
2023/12/04 00:36:34;;;;;;;;;;;;;;;5.15;100.00;99570.72;5086705;28;20003;-84
2023/12/04 00:38:59;;;;;;;;;;;;;;;5.02;100.00;99564.88;5086534;28;20437;-85
2023/12/04 00:41:24;;;;;;;;;;;;;;;4.97;100.00;99571.16;5087614;28;20283;-84
2023/12/04 00:43:52;;;;;;;;;;;;;;;4.85;100.00;99557.44;5084969;28;20003;-84
2023/12/04 00:46:17;;;;;;;;;;;;;;;4.79;100.00;99556.72;5087850;28;19924;-87
2023/12/04 00:48:42;;;;;;;;;;;;;;;4.68;100.00;99549.06;5087332;28;19923;-85
2023/12/04 00:51:07;;;;;;;;;;;;;;;4.62;100.00;99543.97;5087686;28;19921;-84
2023/12/04 00:53:33;;;;;;;;;;;;;;;4.53;100.00;99534.50;5085639;28;19916;-83
2023/12/04 00:55:58;;;;;;;;;;;;;;;4.58;100.00;99542.28;5078162;28;19931;-83
2023/12/04 00:58:23;;;;;;;;;;;;;;;5.54;100.00;99531.22;5072355;28;19923;-84
2023/12/04 01:00:51;;;;;;;;;;;;;;;6.12;100.00;99522.66;5073838;28;19917;-84
2023/12/04 01:03:16;;;;;;;;;;;;;;;6.41;100.00;99523.56;5073023;28;19960;-85
2023/12/04 01:05:42;;;;;;;;;;;;;;;6.60;100.00;99530.00;5072487;28;19951;-85
2023/12/04 01:08:07;;;;;;;;;;;;;;;6.71;100.00;99527.03;5073812;28;19920;-89
2023/12/04 01:10:32;;;;;;;;;;;;;;;6.83;100.00;99524.03;5072306;28;20370;-85
2023/12/04 01:12:58;;;;;;;;;;;;;;;6.91;100.00;99529.06;5072806;28;19920;-83
2023/12/04 01:15:23;;;;;;;;;;;;;;;6.97;100.00;99518.28;5072836;28;20372;-84
2023/12/04 01:17:49;;;;;;;;;;;;;;;7.02;100.00;99519.03;5073462;28;19979;-85
2023/12/04 01:20:14;;;;;;;;;;;;;;;7.08;100.00;99521.47;5073541;28;19923;-87
2023/12/04 01:22:39;;;;;;;;;;;;;;;7.12;100.00;99511.69;5073480;28;20398;-85
2023/12/04 08:56:51;;;;;;;;;;;;;;;7.30;100.00;99080.63;5348658;23;19926;-84
2023/12/04 08:59:16;;;;;;;;;;;;;;;7.34;100.00;99074.31;4986638;28;19921;-80
2023/12/04 09:01:42;;;;;;;;;;;;;;;7.35;100.00;99076.00;4985862;28;19926;-81
2023/12/04 09:04:07;;;;;;;;;;;;;;;7.38;100.00;99075.03;4984388;28;20017;-83
2023/12/04 09:06:33;;;;;;;;;;;;;;;7.39;100.00;99074.97;4985220;28;19930;-84
2023/12/04 09:08:58;;;;;;;;;;;;;;;7.42;100.00;99076.63;4985460;28;20332;-84
2023/12/04 09:11:23;;;;;;;;;;;;;;;7.43;100.00;99073.06;4984743;28;20024;-86
2023/12/04 09:13:48;;;;;;;;;;;;;;;7.46;100.00;99057.13;4984304;28;19929;-83
2023/12/04 09:16:14;;;;;;;;;;;;;;;7.46;100.00;99055.34;4985392;28;19976;-83
2023/12/04 09:18:39;;;;;;;;;;;;;;;7.48;100.00;99043.88;4985302;28;19922;-85
2023/12/04 09:21:04;;;;;;;;;;;;;;;7.51;100.00;99049.88;4983638;28;19926;-82
2023/12/04 09:23:30;;;;;;;;;;;;;;;7.53;100.00;99040.13;4984789;28;20009;-83
2023/12/04 09:25:55;;;;;;;;;;;;;;;7.55;100.00;99040.91;4984504;28;20304;-84
2023/12/04 09:28:21;;;;;;;;;;;;;;;7.56;100.00;99036.50;4984621;28;19929;-84
2023/12/04 09:30:46;;;;;;;;;;;;;;;7.57;100.00;99036.44;4985038;28;19946;-84
2023/12/04 09:33:11;;;;;;;;;;;;;;;7.58;100.00;99032.03;4986023;28;19929;-83
2023/12/04 09:35:36;;;;;;;;;;;;;;;7.59;100.00;99025.81;4983753;28;19922;-83
2023/12/04 09:38:02;;;;;;;;;;;;;;;7.60;100.00;99027.56;4985398;28;20028;-82
2023/12/04 09:40:27;;;;;;;;;;;;;;;7.61;100.00;99023.97;4983809;28;19922;-82
2023/12/04 09:42:53;;;;;;;;;;;;;;;7.63;100.00;99016.88;4984452;28;20384;-85
2023/12/04 09:45:20;;;;;;;;;;;;;;;7.63;100.00;99020.34;4985948;28;19922;-87
2023/12/04 09:47:46;;;;;;;;;;;;;;;7.67;100.00;99022.88;4984974;28;19968;-85
2023/12/04 09:50:11;;;;;;;;;;;;;;;7.67;100.00;99018.44;4984351;28;19925;-84
2023/12/04 09:52:37;;;;;;;;;;;;;;;7.69;100.00;99015.72;4985140;28;19926;-85
2023/12/04 09:55:03;;;;;;;;;;;;;;;7.71;100.00;99006.00;4984778;28;20348;-84
2023/12/04 09:57:28;;;;;;;;;;;;;;;7.71;100.00;98993.66;4982599;28;19925;-85
2023/12/04 09:59:58;;;;;;;;;;;;;;;7.74;100.00;98998.81;4984624;28;20284;-79
2023/12/04 10:02:23;;;;;;;;;;;;;;;7.73;100.00;98986.53;4982866;28;19987;-84
2023/12/04 10:04:49;;;;;;;;;;;;;;;7.76;100.00;98985.56;4982895;28;20369;-83
2023/12/04 10:07:14;;;;;;;;;;;;;;;7.76;100.00;98975.84;4984668;28;19925;-83
2023/12/04 10:09:41;;;;;;;;;;;;;;;7.76;100.00;98969.72;4983507;28;20361;-84
2023/12/04 10:12:06;;;;;;;;;;;;;;;7.77;100.00;98967.03;4982997;28;19919;-81
2023/12/04 10:14:32;;;;;;;;;;;;;;;7.79;100.00;98954.63;4986108;28;19922;-82
2023/12/04 10:16:57;;;;;;;;;;;;;;;7.82;100.00;98958.91;4983501;28;19941;-83
2023/12/04 10:19:26;;;;;;;;;;;;;;;7.80;100.00;98956.34;4984032;28;19929;-82
2023/12/04 10:21:51;;;;;;;;;;;;;;;7.81;100.00;98947.47;4984146;28;19918;-84
2023/12/04 10:24:28;;;;;;;;;;;;;;;7.82;100.00;98949.22;4984150;28;19929;-83
2023/12/04 10:26:54;;;;;;;;;;;;;;;7.84;100.00;98941.22;4983915;28;19996;-80
2023/12/04 10:29:19;;;;;;;;;;;;;;;7.84;100.00;98928.03;4980709;28;20441;-84
2023/12/04 10:31:44;;;;;;;;;;;;;;;7.86;100.00;98926.19;4984485;28;19949;-82
2023/12/04 10:34:10;;;;;;;;;;;;;;;7.86;100.00;98927.97;4983900;28;20296;-83
2023/12/04 10:36:35;;;;;;;;;;;;;;;7.87;100.00;98913.88;4984791;28;19922;-84
2023/12/04 10:39:04;;;;;;;;;;;;;;;7.87;100.00;98901.53;4983901;28;20004;-84
2023/12/04 10:41:29;;;;;;;;;;;;;;;7.89;100.00;98901.47;4982272;28;19957;-83
2023/12/04 10:43:55;;;;;;;;;;;;;;;7.90;100.00;98895.28;4982149;28;20016;-82
2023/12/04 10:46:21;;;;;;;;;;;;;;;7.55;100.00;98898.56;4984221;28;19933;-83
2023/12/04 10:48:47;;;;;;;;;;;;;;;6.31;100.00;98894.97;4983599;28;19980;-83
2023/12/04 10:51:12;;;;;;;;;;;;;;;5.71;100.00;98891.97;4982657;28;19921;-82
2023/12/04 10:53:40;;;;;;;;;;;;;;;5.52;100.00;98890.91;4982898;28;19957;-83
2023/12/04 10:56:07;;;;;;;;;;;;;;;5.35;100.00;98886.28;4982334;28;19969;-84
2023/12/04 10:58:34;;;;;;;;;;;;;;;5.24;100.00;98877.00;4981942;28;19926;-84
2023/12/04 11:01:01;;;;;;;;;;;;;;;5.11;100.00;98880.16;4983973;28;19922;-83
2023/12/04 11:03:36;;;;;;;;;;;;;;;4.99;100.00;98871.75;4983492;28;20289;-85
2023/12/04 11:06:02;;;;;;;;;;;;;;;4.91;100.00;98864.16;4982758;28;19969;-84
2023/12/04 11:08:29;;;;;;;;;;;;;;;4.78;100.00;98862.84;4983698;28;19974;-83
2023/12/04 11:10:54;;;;;;;;;;;;;;;4.75;100.00;98862.97;4982012;28;20016;-83
2023/12/04 11:13:34;;;;;;;;;;;;;;;4.71;100.00;98856.97;4982274;28;20018;-83
2023/12/04 11:16:02;;;;;;;;;;;;;;;4.65;100.00;98856.31;4983983;28;19976;-85
2023/12/04 11:18:30;;;;;;;;;;;;;;;4.55;100.00;98848.75;4983122;28;20288;-90
2023/12/04 11:21:02;;;;;;;;;;;;;;;4.49;100.00;98841.06;4981968;28;19925;-83
2023/12/04 11:23:28;;;;;;;;;;;;;;;4.53;100.00;98837.47;4981941;28;20373;-84
2023/12/04 11:25:54;;;;;;;;;;;;;;;5.42;100.00;98832.59;4981866;28;19941;-84
2023/12/04 11:28:19;;;;;;;;;;;;;;;6.00;100.00;98825.16;4982290;28;19938;-84
2023/12/04 11:30:45;;;;;;;;;;;;;;;6.32;100.00;98815.13;4983248;28;19926;-83
2023/12/04 11:33:11;;;;;;;;;;;;;;;6.51;100.00;98809.06;4981776;28;20006;-85
2023/12/04 11:35:38;;;;;;;;;;;;;;;6.67;100.00;98804.03;4980474;28;20366;-88
2023/12/04 11:38:04;;;;;;;;;;;;;;;6.79;100.00;98800.88;4983019;28;19926;-86
2023/12/04 11:40:30;;;;;;;;;;;;;;;6.89;100.00;98799.56;4982478;28;19922;-90
2023/12/04 11:42:55;;;;;;;;;;;;;;;6.96;100.00;98788.78;4981715;28;19925;-83
2023/12/04 11:45:21;;;;;;;;;;;;;;;7.02;100.00;98797.25;4983227;28;19925;-84
2023/12/04 11:47:54;;;;;;;;;;;;;;;7.07;100.00;98782.09;4982696;28;20274;-84
2023/12/04 11:50:19;;;;;;;;;;;;;;;7.13;100.00;98782.75;4981551;28;20380;-83
2023/12/04 11:52:45;;;;;;;;;;;;;;;7.18;100.00;98778.97;4983186;28;20012;-86
2023/12/04 11:55:10;;;;;;;;;;;;;;;7.24;100.00;98785.75;4982710;28;20388;-83
2023/12/04 11:57:37;;;;;;;;;;;;;;;7.28;100.00;98779.41;4981101;28;19926;-81
2023/12/04 12:00:11;;;;;;;;;;;;;;;7.32;100.00;98774.84;5006358;28;19918;-82
2023/12/04 12:02:40;;;;;;;;;;;;;;;7.33;100.00;98772.16;4981982;28;19926;-83
2023/12/04 12:05:07;;;;;;;;;;;;;;;7.36;100.00;98758.84;4983057;28;20507;-82
2023/12/04 12:07:33;;;;;;;;;;;;;;;7.39;100.00;98761.34;4982983;28;19921;-87
2023/12/04 12:09:58;;;;;;;;;;;;;;;7.43;100.00;98757.63;4982283;28;19926;-85
2023/12/04 12:12:25;;;;;;;;;;;;;;;7.44;100.00;98753.22;4980793;28;19930;-82
2023/12/04 12:14:50;;;;;;;;;;;;;;;7.50;100.00;98752.06;4982714;28;20001;-83
2023/12/04 12:17:16;;;;;;;;;;;;;;;7.50;100.00;98747.66;4983524;28;20100;-84
2023/12/04 12:19:41;;;;;;;;;;;;;;;7.53;100.00;98746.66;4983183;28;19922;-84
2023/12/04 12:22:07;;;;;;;;;;;;;;;7.54;100.00;98743.94;4982457;28;20522;-83
2023/12/04 12:24:32;;;;;;;;;;;;;;;7.55;100.00;98729.84;4982221;28;19922;-83
2023/12/04 12:26:57;;;;;;;;;;;;;;;7.57;100.00;98732.41;4982318;28;19933;-83
2023/12/04 12:29:23;;;;;;;;;;;;;;;7.60;100.00;98719.94;4980849;28;19926;-84
2023/12/04 12:31:49;;;;;;;;;;;;;;;7.62;100.00;98714.59;4979311;28;19976;-83
2023/12/04 12:34:14;;;;;;;;;;;;;;;7.65;100.00;98703.91;4982332;28;20009;-82
2023/12/04 12:36:40;;;;;;;;;;;;;;;7.67;100.00;98701.19;4981707;28;20020;-82
2023/12/04 12:39:08;;;;;;;;;;;;;;;7.68;100.00;98693.19;4982575;28;20005;-82
2023/12/04 12:41:33;;;;;;;;;;;;;;;7.69;100.00;98684.38;4980739;28;20502;-82
2023/12/04 12:44:00;;;;;;;;;;;;;;;8.12;100.00;98682.25;4981232;28;19926;-83
2023/12/04 12:46:25;;;;;;;;;;;;;;;7.40;100.00;98667.31;4980406;28;19981;-83
2023/12/04 12:48:51;;;;;;;;;;;;;;;6.07;100.00;98673.22;4981231;28;19926;-87
2023/12/04 12:51:17;;;;;;;;;;;;;;;5.55;100.00;98670.94;4981325;28;19925;-83
2023/12/04 12:53:43;;;;;;;;;;;;;;;5.35;100.00;98669.09;4983711;28;19961;-85
2023/12/04 12:56:09;;;;;;;;;;;;;;;5.20;100.00;98660.06;4983238;28;19930;-86
2023/12/04 12:58:34;;;;;;;;;;;;;;;5.01;100.00;98644.16;4985695;28;19933;-84
2023/12/04 13:01:00;;;;;;;;;;;;;;;4.90;100.00;98644.56;4986177;28;19964;-83
2023/12/04 13:03:25;;;;;;;;;;;;;;;4.80;100.00;98630.06;4981773;28;19954;-82
2023/12/04 13:05:50;;;;;;;;;;;;;;;4.75;100.00;98621.50;4983457;28;19985;-90
2023/12/04 13:08:16;;;;;;;;;;;;;;;4.63;100.00;98614.13;4985262;28;19929;-83
2023/12/04 13:10:41;;;;;;;;;;;;;;;4.54;100.00;98618.78;4983439;28;19926;-82
2023/12/04 13:13:13;;;;;;;;;;;;;;;4.54;100.00;98617.91;4985021;28;19925;-83
2023/12/04 13:15:38;;;;;;;;;;;;;;;4.46;100.00;98604.25;4985391;28;19929;-83
2023/12/04 13:18:04;;;;;;;;;;;;;;;4.44;100.00;98603.44;4985022;28;20390;-80
2023/12/04 13:20:29;;;;;;;;;;;;;;;5.13;100.00;98599.97;4985846;28;19973;-84
2023/12/04 13:22:54;;;;;;;;;;;;;;;5.80;100.00;98584.03;4986054;28;19922;-82
2023/12/04 13:25:20;;;;;;;;;;;;;;;6.20;100.00;98578.88;4982456;28;20432;-93
2023/12/04 13:27:46;;;;;;;;;;;;;;;6.48;100.00;98575.03;4985107;28;19922;-84
2023/12/04 13:30:11;;;;;;;;;;;;;;;6.61;100.00;98557.72;4983961;28;19961;-87
2023/12/04 13:32:36;;;;;;;;;;;;;;;6.76;100.00;98563.22;4985635;28;20381;-87
2023/12/04 13:35:04;;;;;;;;;;;;;;;6.86;100.00;98548.66;4984937;28;20041;-85
2023/12/04 13:37:30;;;;;;;;;;;;;;;6.93;100.00;98544.84;4984366;28;19922;-85
2023/12/04 13:39:58;;;;;;;;;;;;;;;7.01;100.00;98540.03;4985478;28;19918;-84
2023/12/04 13:45:10;;;;;;;;;;;;;;;7.13;100.00;98533.31;4983112;28;19988;-84
2023/12/04 13:47:35;;;;;;;;;;;;;;;7.20;100.00;98533.91;4982818;28;19973;-83
2023/12/04 13:50:01;;;;;;;;;;;;;;;7.24;100.00;98527.53;4983897;28;19984;-83
2023/12/04 13:52:30;;;;;;;;;;;;;;;7.27;100.00;98524.75;4984567;28;19926;-83
2023/12/04 13:54:57;;;;;;;;;;;;;;;7.32;100.00;98517.47;4983914;28;19948;-83
2023/12/04 13:57:28;;;;;;;;;;;;;;;7.35;100.00;98514.69;4982093;28;19925;-84
2023/12/04 13:59:53;;;;;;;;;;;;;;;7.37;100.00;98510.22;4983528;28;19965;-82
2023/12/04 14:02:18;;;;;;;;;;;;;;;7.41;100.00;98514.38;4981802;28;20337;-83
2023/12/04 14:04:43;;;;;;;;;;;;;;;7.44;100.00;98516.84;4985539;28;20357;-90
2023/12/04 14:07:10;;;;;;;;;;;;;;;7.49;100.00;98507.88;4985036;28;19918;-83
2023/12/04 14:09:35;;;;;;;;;;;;;;;7.50;100.00;98504.28;4982919;28;19929;-83
2023/12/04 14:12:00;;;;;;;;;;;;;;;7.52;100.00;98503.28;4982985;28;19918;-84
2023/12/04 14:14:26;;;;;;;;;;;;;;;7.55;100.00;98495.25;4984110;28;19924;-83
2023/12/04 14:16:52;;;;;;;;;;;;;;;7.58;100.00;98491.59;4981204;28;19949;-83
2023/12/04 14:19:20;;;;;;;;;;;;;;;7.60;100.00;98489.72;4983314;28;19925;-84
2023/12/04 14:21:48;;;;;;;;;;;;;;;7.61;100.00;98483.50;4982978;28;20012;-83
2023/12/04 14:24:13;;;;;;;;;;;;;;;7.64;100.00;98491.25;4982198;28;21325;-83
2023/12/04 14:26:38;;;;;;;;;;;;;;;7.67;100.00;98492.91;4982393;28;19975;-83
2023/12/04 14:29:03;;;;;;;;;;;;;;;7.70;100.00;98482.19;4983759;28;19949;-83
2023/12/04 14:31:29;;;;;;;;;;;;;;;7.71;100.00;98470.72;4979459;28;20388;-83
2023/12/04 14:33:55;;;;;;;;;;;;;;;7.72;100.00;98473.28;4980418;28;20391;-84
2023/12/04 14:36:20;;;;;;;;;;;;;;;7.72;100.00;98477.69;4983086;28;19922;-82
2023/12/04 14:38:45;;;;;;;;;;;;;;;7.75;100.00;98467.81;4982200;28;19922;-84
2023/12/04 14:41:11;;;;;;;;;;;;;;;7.76;100.00;98469.53;4982681;28;20412;-83
2023/12/04 14:43:37;;;;;;;;;;;;;;;7.78;100.00;98467.66;4984070;28;19945;-84
2023/12/04 14:46:02;;;;;;;;;;;;;;;7.80;100.00;98467.59;4980777;28;19925;-84
2023/12/04 14:48:28;;;;;;;;;;;;;;;7.82;100.00;98473.66;4983564;28;20300;-84
2023/12/04 14:50:53;;;;;;;;;;;;;;;7.83;100.00;98459.50;4982409;28;19925;-83
2023/12/04 14:53:43;;;;;;;;;;;;;;;7.84;100.00;98453.31;4980376;28;19925;-83
2023/12/04 15:01:51;;;;;;;;;;;;;;;7.38;100.00;98456.56;4982609;28;20013;-84
2023/12/04 15:09:45;;;;;;;;;;;;;;;5.33;100.00;98444.16;4982085;28;19926;-84
2023/12/04 15:14:39;;;;;;;;;;;;;;;5.03;100.00;98431.44;4982023;28;20293;-83
2023/12/04 15:20:38;;;;;;;;;;;;;;;4.81;100.00;98448.06;4983543;28;20320;-84
2023/12/04 15:22:34;;;;;;;;;;;;;;;4.70;100.00;98434.53;4972794;28;20788;-83
2023/12/04 15:24:59;;;;;;;;;;;;;;;4.67;100.00;98432.88;4982847;28;19918;-83
2023/12/04 15:27:24;;;;;;;;;;;;;;;4.60;100.00;98431.41;4981856;28;19922;-84
2023/12/04 15:29:49;;;;;;;;;;;;;;;4.53;100.00;98437.81;4983609;28;19918;-82
2023/12/04 15:32:15;;;;;;;;;;;;;;;4.52;100.00;98430.88;4983823;28;19921;-83
2023/12/04 15:34:40;;;;;;;;;;;;;;;4.46;100.00;98413.59;4982110;28;20004;-89
2023/12/04 15:37:06;;;;;;;;;;;;;;;4.40;100.00;98413.84;4982986;28;19925;-83
2023/12/04 15:39:31;;;;;;;;;;;;;;;4.70;100.00;98397.78;4982560;28;20293;-84
2023/12/04 15:41:56;;;;;;;;;;;;;;;5.48;100.00;98401.47;4979534;28;19928;-83
2023/12/04 15:44:22;;;;;;;;;;;;;;;5.95;100.00;98401.13;4981359;28;19922;-81
2023/12/04 15:46:47;;;;;;;;;;;;;;;6.29;100.00;98396.94;4980755;28;19922;-83
2023/12/04 15:49:13;;;;;;;;;;;;;;;6.51;100.00;98398.53;4978054;28;19930;-84
2023/12/04 15:51:41;;;;;;;;;;;;;;;6.66;100.00;98392.53;4980872;28;20330;-83
2023/12/04 15:54:06;;;;;;;;;;;;;;;6.79;100.00;98391.94;4981475;28;19947;-84
2023/12/04 15:56:32;;;;;;;;;;;;;;;6.88;100.00;98389.69;4979213;28;20349;-83
2023/12/04 15:58:57;;;;;;;;;;;;;;;6.96;100.00;98386.69;4980182;28;19976;-84
2023/12/04 16:01:23;;;;;;;;;;;;;;;7.02;100.00;98378.47;4980860;28;19925;-86
2023/12/04 16:03:49;;;;;;;;;;;;;;;7.09;100.00;98387.75;4980444;28;20033;-83
2023/12/04 16:06:16;;;;;;;;;;;;;;;7.16;100.00;98377.75;4981733;28;19965;-93
2023/12/04 16:08:44;;;;;;;;;;;;;;;7.21;100.00;98382.78;4980395;28;19921;-83
2023/12/04 16:11:10;;;;;;;;;;;;;;;7.25;100.00;98379.06;4980684;28;20330;-86
2023/12/04 16:13:37;;;;;;;;;;;;;;;7.30;100.00;98381.47;4980985;28;19953;-85
2023/12/04 16:16:04;;;;;;;;;;;;;;;7.34;100.00;98369.81;4978329;28;19922;-84
2023/12/04 16:18:34;;;;;;;;;;;;;;;7.37;100.00;98367.91;4982385;28;19918;-83
2023/12/04 16:21:00;;;;;;;;;;;;;;;7.40;100.00;98365.09;4981008;28;20266;-83
2023/12/04 16:23:26;;;;;;;;;;;;;;;7.44;100.00;98364.00;4982417;28;19929;-82
2023/12/04 16:25:52;;;;;;;;;;;;;;;7.48;100.00;98366.47;4981341;28;19918;-84
2023/12/04 16:28:18;;;;;;;;;;;;;;;7.50;100.00;98367.22;4984867;28;19921;-85
2023/12/04 16:30:43;;;;;;;;;;;;;;;7.52;100.00;98360.97;4988046;28;20443;-84
2023/12/04 16:33:08;;;;;;;;;;;;;;;7.56;100.00;98366.91;4983451;28;19938;-85
2023/12/04 16:35:34;;;;;;;;;;;;;;;7.56;100.00;98357.25;4986560;28;20261;-86
2023/12/04 16:37:59;;;;;;;;;;;;;;;7.60;100.00;98342.09;4985211;28;19926;-85
2023/12/04 16:40:24;;;;;;;;;;;;;;;7.62;100.00;98345.50;4983319;28;20766;-86
2023/12/04 16:42:50;;;;;;;;;;;;;;;7.64;100.00;98348.91;4985206;28;19925;-81
2023/12/04 16:45:15;;;;;;;;;;;;;;;7.66;100.00;98341.78;4986252;28;19918;-83
2023/12/04 16:47:40;;;;;;;;;;;;;;;7.66;100.00;98336.50;4985315;28;19925;-90
2023/12/04 16:50:05;;;;;;;;;;;;;;;7.69;100.00;98336.34;4985684;28;19953;-84
2023/12/04 16:52:31;;;;;;;;;;;;;;;7.71;100.00;98334.47;4984533;28;20358;-82
2023/12/04 16:54:57;;;;;;;;;;;;;;;7.73;100.00;98326.47;4986291;28;19956;-84
2023/12/04 16:57:25;;;;;;;;;;;;;;;7.76;100.00;98326.31;4984240;28;20008;-85
2023/12/04 16:59:51;;;;;;;;;;;;;;;7.78;100.00;98327.91;4984187;28;20005;-82
2023/12/04 17:02:16;;;;;;;;;;;;;;;7.82;100.00;98323.34;4984512;28;20005;-82
2023/12/04 17:04:41;;;;;;;;;;;;;;;7.81;100.00;98313.72;4985478;28;19969;-84
2023/12/04 17:07:07;;;;;;;;;;;;;;;7.83;100.00;98314.47;4984720;28;20012;-83
2023/12/04 17:09:33;;;;;;;;;;;;;;;7.86;100.00;98316.09;4985737;28;19918;-82
2023/12/04 17:11:58;;;;;;;;;;;;;;;7.85;100.00;98310.00;4982854;28;20385;-83
2023/12/04 17:14:24;;;;;;;;;;;;;;;7.75;100.00;98316.69;4984498;28;19965;-82
2023/12/04 17:16:49;;;;;;;;;;;;;;;6.35;100.00;98317.72;4985902;28;19918;-82
2023/12/04 17:19:15;;;;;;;;;;;;;;;5.80;100.00;98323.81;4985377;28;19918;-87
2023/12/04 17:21:40;;;;;;;;;;;;;;;5.46;100.00;98314.00;4984388;28;19922;-85
2023/12/04 17:24:41;;;;;;;;;;;;;;;5.28;100.00;98313.91;4986581;28;19922;-85
2023/12/04 17:27:06;;;;;;;;;;;;;;;5.12;100.00;98305.00;4982597;28;19918;-87
2023/12/04 17:29:32;;;;;;;;;;;;;;;5.04;100.00;98302.72;4983657;28;19922;-86
2023/12/04 17:31:57;;;;;;;;;;;;;;;4.96;100.00;98314.47;4985573;28;19933;-83
2023/12/04 17:34:22;;;;;;;;;;;;;;;4.84;100.00;98314.09;4985238;28;20397;-84
2023/12/04 17:36:59;;;;;;;;;;;;;;;4.79;100.00;98318.69;4983513;28;19918;-84
2023/12/04 17:39:24;;;;;;;;;;;;;;;4.73;100.00;98309.28;4984643;28;19926;-82
2023/12/04 17:41:49;;;;;;;;;;;;;;;4.62;100.00;98311.50;4983287;28;19925;-83
2023/12/04 17:44:15;;;;;;;;;;;;;;;4.57;100.00;98307.41;4983459;28;19917;-85
2023/12/04 17:46:40;;;;;;;;;;;;;;;4.55;100.00;98305.69;4984434;28;19918;-86
2023/12/04 17:49:09;;;;;;;;;;;;;;;4.52;100.00;98299.72;4984513;28;19925;-88
2023/12/04 17:51:36;;;;;;;;;;;;;;;4.39;100.00;98293.25;4985609;28;19937;-86
2023/12/04 17:54:04;;;;;;;;;;;;;;;4.38;100.00;98295.03;4982535;28;19921;-86
2023/12/04 17:56:30;;;;;;;;;;;;;;;4.93;100.00;98290.97;4983636;28;19926;-84
2023/12/04 17:58:55;;;;;;;;;;;;;;;5.59;100.00;98282.78;4983900;28;19979;-86
2023/12/04 18:01:20;;;;;;;;;;;;;;;5.99;100.00;98280.91;4986132;28;20381;-82
2023/12/04 18:03:46;;;;;;;;;;;;;;;6.28;100.00;98276.00;4985152;28;19922;-83
2023/12/04 18:06:14;;;;;;;;;;;;;;;6.48;100.00;98278.50;4984193;28;19918;-83
2023/12/04 18:08:41;;;;;;;;;;;;;;;6.64;100.00;98275.94;4984813;28;19917;-85
2023/12/04 18:11:06;;;;;;;;;;;;;;;6.76;100.00;98257.81;4983492;28;19926;-84
2023/12/04 18:13:33;;;;;;;;;;;;;;;6.87;100.00;98268.66;4983825;28;20558;-84
2023/12/04 18:15:59;;;;;;;;;;;;;;;6.95;100.00;98261.19;4984504;28;20017;-86
2023/12/04 18:18:24;;;;;;;;;;;;;;;7.04;100.00;98258.09;4984519;28;20428;-85
2023/12/04 18:20:51;;;;;;;;;;;;;;;7.09;100.00;98248.16;4984670;28;20377;-87
2023/12/04 18:23:16;;;;;;;;;;;;;;;7.14;100.00;98236.53;4984718;28;20300;-85
2023/12/04 18:25:42;;;;;;;;;;;;;;;7.19;100.00;98247.66;4982849;28;19918;-85
2023/12/04 18:28:09;;;;;;;;;;;;;;;7.24;100.00;98238.59;4984085;28;19929;-84
2023/12/04 18:30:34;;;;;;;;;;;;;;;7.28;100.00;98234.00;4983286;28;20369;-83
2023/12/04 18:33:00;;;;;;;;;;;;;;;7.31;100.00;98236.47;4984106;28;19918;-85
2023/12/04 18:35:25;;;;;;;;;;;;;;;7.35;100.00;98231.88;4983637;28;20009;-84
2023/12/04 18:37:50;;;;;;;;;;;;;;;7.40;100.00;98233.34;4984203;28;19918;-85
2023/12/04 18:40:17;;;;;;;;;;;;;;;7.41;100.00;98232.41;4981621;28;19921;-84
2023/12/04 18:42:42;;;;;;;;;;;;;;;7.43;100.00;98219.97;4983335;28;19924;-84
2023/12/04 18:45:07;;;;;;;;;;;;;;;7.48;100.00;98219.72;4984069;28;19918;-83
2023/12/04 18:47:35;;;;;;;;;;;;;;;7.51;100.00;98216.09;4982809;28;19918;-85
2023/12/04 18:50:01;;;;;;;;;;;;;;;7.53;100.00;98217.72;4982317;28;19918;-84
2023/12/04 18:52:27;;;;;;;;;;;;;;;7.55;100.00;98223.75;4984393;28;20286;-85
2023/12/04 18:54:52;;;;;;;;;;;;;;;7.59;100.00;98219.13;4982247;28;19965;-86
2023/12/04 18:57:17;;;;;;;;;;;;;;;7.60;100.00;98210.31;4982475;28;19980;-84
2023/12/04 18:59:42;;;;;;;;;;;;;;;7.62;100.00;98208.44;4982505;28;19922;-84
2023/12/04 19:02:08;;;;;;;;;;;;;;;7.63;100.00;98216.25;4983785;28;19914;-84
2023/12/04 19:04:34;;;;;;;;;;;;;;;7.66;100.00;98214.38;4983479;28;19918;-84
2023/12/04 19:07:02;;;;;;;;;;;;;;;7.68;100.00;98202.81;4983521;28;19969;-84
2023/12/04 19:09:29;;;;;;;;;;;;;;;7.73;100.00;98207.84;4982541;28;20306;-83
2023/12/04 19:11:54;;;;;;;;;;;;;;;7.73;100.00;98203.41;4982324;28;20278;-84
2023/12/04 19:14:20;;;;;;;;;;;;;;;7.75;100.00;98192.75;4983738;28;19929;-83
2023/12/04 19:16:45;;;;;;;;;;;;;;;7.77;100.00;98202.31;4983375;28;20036;-84
2023/12/04 19:19:10;;;;;;;;;;;;;;;7.78;100.00;98196.06;4983122;28;20385;-84
2023/12/04 19:21:38;;;;;;;;;;;;;;;7.80;100.00;98199.50;4983608;28;19918;-84
2023/12/04 19:24:04;;;;;;;;;;;;;;;7.81;100.00;98182.72;4982995;28;19918;-83
2023/12/04 19:26:32;;;;;;;;;;;;;;;7.82;100.00;98173.88;4981835;28;19929;-84
2023/12/04 19:29:01;;;;;;;;;;;;;;;7.83;100.00;98172.09;4983703;28;19917;-83
2023/12/04 19:31:26;;;;;;;;;;;;;;;7.86;100.00;98181.63;4983594;28;20389;-83
2023/12/04 19:33:54;;;;;;;;;;;;;;;7.87;100.00;98163.06;4982832;28;19922;-84
2023/12/04 19:36:19;;;;;;;;;;;;;;;6.61;100.00;98167.34;4982372;28;19997;-83
2023/12/04 19:38:44;;;;;;;;;;;;;;;5.85;100.00;98171.13;4982937;28;20021;-83
2023/12/04 19:41:11;;;;;;;;;;;;;;;5.53;100.00;98178.78;4981629;28;20365;-84
2023/12/04 19:43:36;;;;;;;;;;;;;;;5.27;100.00;98178.25;4981664;28;19926;-84
2023/12/04 19:46:02;;;;;;;;;;;;;;;5.18;100.00;98178.69;4981964;28;20005;-83
2023/12/04 19:48:28;;;;;;;;;;;;;;;5.04;100.00;98168.84;4982676;28;19965;-83
2023/12/04 19:50:53;;;;;;;;;;;;;;;4.96;100.00;98170.94;4981484;28;20308;-84
2023/12/04 19:53:19;;;;;;;;;;;;;;;4.83;100.00;98165.41;4983485;28;19924;-83
2023/12/04 19:55:44;;;;;;;;;;;;;;;4.84;100.00;98167.09;4980075;28;19926;-83
2023/12/04 19:58:09;;;;;;;;;;;;;;;4.71;100.00;98163.34;4982134;28;19928;-83
2023/12/04 20:00:34;;;;;;;;;;;;;;;4.65;100.00;98168.88;4983725;28;19918;-83
2023/12/04 20:03:00;;;;;;;;;;;;;;;4.61;100.00;98162.03;4986665;28;20421;-83
2023/12/04 20:05:25;;;;;;;;;;;;;;;4.59;100.00;98159.47;4985077;28;19918;-83
2023/12/04 20:07:51;;;;;;;;;;;;;;;4.46;100.00;98159.16;4986797;28;20441;-84
2023/12/04 20:10:16;;;;;;;;;;;;;;;4.41;100.00;98155.91;4985817;28;19971;-83
2023/12/04 20:12:41;;;;;;;;;;;;;;;4.34;100.00;98151.84;4985328;28;19938;-84
2023/12/04 20:15:09;;;;;;;;;;;;;;;4.53;100.00;98160.63;4987194;28;19918;-84
2023/12/04 20:17:34;;;;;;;;;;;;;;;5.32;100.00;98164.91;4986700;28;19928;-84
2023/12/04 20:20:00;;;;;;;;;;;;;;;5.76;100.00;98164.56;4985259;28;19918;-85
2023/12/04 20:22:25;;;;;;;;;;;;;;;6.09;100.00;98150.66;4985027;28;20273;-84
2023/12/04 20:24:50;;;;;;;;;;;;;;;6.34;100.00;98150.28;4986909;28;19925;-86
2023/12/04 20:27:16;;;;;;;;;;;;;;;6.53;100.00;98142.28;4984530;28;19976;-89
2023/12/04 20:29:41;;;;;;;;;;;;;;;6.68;100.00;98148.50;4985300;28;19914;-83
2023/12/04 20:32:07;;;;;;;;;;;;;;;6.81;100.00;98142.59;4986133;28;19928;-86